sensor_id;sensor_type;location;lat;lon;timestamp;P1;durP1;ratioP1;P2;durP2;ratioP2
41546;SDS011;27271;45.412;10.852;2023-03-23T00:00:30;42.75;;;19.40;;
41546;SDS011;27271;45.412;10.852;2023-03-23T00:03:52;41.95;;;19.83;;
41546;SDS011;27271;45.412;10.852;2023-03-23T00:07:17;42.40;;;18.08;;
41546;SDS011;27271;45.412;10.852;2023-03-23T00:10:50;45.70;;;20.40;;
41546;SDS011;27271;45.412;10.852;2023-03-23T00:14:17;45.40;;;20.63;;
41546;SDS011;27271;45.412;10.852;2023-03-23T00:17:42;45.25;;;19.50;;
41546;SDS011;27271;45.412;10.852;2023-03-23T00:21:06;44.70;;;20.10;;
41546;SDS011;27271;45.412;10.852;2023-03-23T00:24:27;44.85;;;20.17;;
41546;SDS011;27271;45.412;10.852;2023-03-23T00:27:48;37.60;;;19.27;;
41546;SDS011;27271;45.412;10.852;2023-03-23T00:31:09;49.45;;;21.38;;
41546;SDS011;27271;45.412;10.852;2023-03-23T00:34:30;46.05;;;19.85;;
41546;SDS011;27271;45.412;10.852;2023-03-23T00:37:53;43.67;;;18.88;;
41546;SDS011;27271;45.412;10.852;2023-03-23T00:41:15;55.95;;;21.55;;
41546;SDS011;27271;45.412;10.852;2023-03-23T00:44:36;51.25;;;21.00;;
41546;SDS011;27271;45.412;10.852;2023-03-23T00:47:57;52.95;;;21.23;;
41546;SDS011;27271;45.412;10.852;2023-03-23T00:51:24;41.63;;;18.40;;
41546;SDS011;27271;45.412;10.852;2023-03-23T00:54:45;41.95;;;18.73;;
41546;SDS011;27271;45.412;10.852;2023-03-23T00:58:09;38.28;;;17.55;;
41546;SDS011;27271;45.412;10.852;2023-03-23T01:01:32;40.05;;;19.13;;
41546;SDS011;27271;45.412;10.852;2023-03-23T01:04:53;45.13;;;19.27;;
41546;SDS011;27271;45.412;10.852;2023-03-23T01:08:15;38.08;;;17.90;;
41546;SDS011;27271;45.412;10.852;2023-03-23T01:11:36;45.78;;;19.85;;
41546;SDS011;27271;45.412;10.852;2023-03-23T01:14:59;43.38;;;19.42;;
41546;SDS011;27271;45.412;10.852;2023-03-23T01:18:20;49.78;;;20.40;;
41546;SDS011;27271;45.412;10.852;2023-03-23T01:21:41;44.50;;;18.52;;
41546;SDS011;27271;45.412;10.852;2023-03-23T01:25:02;41.13;;;18.50;;
41546;SDS011;27271;45.412;10.852;2023-03-23T01:28:23;46.35;;;19.50;;
41546;SDS011;27271;45.412;10.852;2023-03-23T01:31:44;41.53;;;17.63;;
41546;SDS011;27271;45.412;10.852;2023-03-23T01:35:05;43.45;;;19.30;;
41546;SDS011;27271;45.412;10.852;2023-03-23T01:38:26;45.83;;;18.20;;
41546;SDS011;27271;45.412;10.852;2023-03-23T01:41:47;45.28;;;20.27;;
41546;SDS011;27271;45.412;10.852;2023-03-23T01:48:43;44.35;;;20.75;;
41546;SDS011;27271;45.412;10.852;2023-03-23T01:52:09;49.63;;;19.95;;
41546;SDS011;27271;45.412;10.852;2023-03-23T01:55:45;47.20;;;19.40;;
41546;SDS011;27271;45.412;10.852;2023-03-23T01:59:11;43.95;;;19.75;;
41546;SDS011;27271;45.412;10.852;2023-03-23T02:02:36;45.15;;;19.88;;
41546;SDS011;27271;45.412;10.852;2023-03-23T02:05:59;40.35;;;18.70;;
41546;SDS011;27271;45.412;10.852;2023-03-23T02:09:30;43.90;;;19.25;;
41546;SDS011;27271;45.412;10.852;2023-03-23T02:12:51;40.55;;;18.92;;
41546;SDS011;27271;45.412;10.852;2023-03-23T02:27:51;49.30;;;20.00;;
41546;SDS011;27271;45.412;10.852;2023-03-23T02:31:39;51.00;;;20.42;;
41546;SDS011;27271;45.412;10.852;2023-03-23T02:35:18;50.97;;;21.48;;
41546;SDS011;27271;45.412;10.852;2023-03-23T02:42:22;53.13;;;23.13;;
41546;SDS011;27271;45.412;10.852;2023-03-23T02:45:47;42.67;;;20.02;;
41546;SDS011;27271;45.412;10.852;2023-03-23T02:49:09;45.08;;;19.13;;
41546;SDS011;27271;45.412;10.852;2023-03-23T02:52:33;50.47;;;22.77;;
41546;SDS011;27271;45.412;10.852;2023-03-23T02:55:56;55.13;;;22.23;;
41546;SDS011;27271;45.412;10.852;2023-03-23T02:59:21;56.03;;;22.45;;
41546;SDS011;27271;45.412;10.852;2023-03-23T03:02:53;52.92;;;20.35;;
41546;SDS011;27271;45.412;10.852;2023-03-23T03:10:54;56.10;;;22.40;;
41546;SDS011;27271;45.412;10.852;2023-03-23T03:14:03;49.33;;;23.20;;
41546;SDS011;27271;45.412;10.852;2023-03-23T03:17:32;58.17;;;24.60;;
41546;SDS011;27271;45.412;10.852;2023-03-23T03:21:02;61.15;;;26.02;;
41546;SDS011;27271;45.412;10.852;2023-03-23T03:24:28;63.17;;;25.50;;
41546;SDS011;27271;45.412;10.852;2023-03-23T03:27:51;57.60;;;24.70;;
41546;SDS011;27271;45.412;10.852;2023-03-23T03:31:28;61.70;;;25.15;;
41546;SDS011;27271;45.412;10.852;2023-03-23T03:34:52;55.75;;;25.10;;
41546;SDS011;27271;45.412;10.852;2023-03-23T03:38:14;55.97;;;23.85;;
41546;SDS011;27271;45.412;10.852;2023-03-23T03:41:36;53.20;;;25.52;;
41546;SDS011;27271;45.412;10.852;2023-03-23T03:44:58;61.95;;;24.77;;
41546;SDS011;27271;45.412;10.852;2023-03-23T03:48:19;56.00;;;25.33;;
41546;SDS011;27271;45.412;10.852;2023-03-23T03:51:41;60.60;;;26.15;;
41546;SDS011;27271;45.412;10.852;2023-03-23T03:55:09;63.13;;;24.55;;
41546;SDS011;27271;45.412;10.852;2023-03-23T03:58:34;62.38;;;23.77;;
41546;SDS011;27271;45.412;10.852;2023-03-23T04:02:08;54.33;;;23.27;;
41546;SDS011;27271;45.412;10.852;2023-03-23T04:05:29;46.90;;;23.75;;
41546;SDS011;27271;45.412;10.852;2023-03-23T04:08:50;57.55;;;22.48;;
41546;SDS011;27271;45.412;10.852;2023-03-23T04:12:11;55.90;;;22.23;;
41546;SDS011;27271;45.412;10.852;2023-03-23T04:15:51;51.63;;;22.10;;
41546;SDS011;27271;45.412;10.852;2023-03-23T04:19:12;60.35;;;24.30;;
41546;SDS011;27271;45.412;10.852;2023-03-23T04:22:34;58.70;;;23.60;;
41546;SDS011;27271;45.412;10.852;2023-03-23T04:25:56;53.38;;;23.05;;
41546;SDS011;27271;45.412;10.852;2023-03-23T04:29:24;57.03;;;22.60;;
41546;SDS011;27271;45.412;10.852;2023-03-23T04:33:18;55.85;;;22.42;;
41546;SDS011;27271;45.412;10.852;2023-03-23T04:36:41;63.45;;;23.42;;
41546;SDS011;27271;45.412;10.852;2023-03-23T04:40:10;57.53;;;23.10;;
41546;SDS011;27271;45.412;10.852;2023-03-23T04:43:36;65.65;;;22.42;;
41546;SDS011;27271;45.412;10.852;2023-03-23T04:47:37;63.97;;;24.10;;
41546;SDS011;27271;45.412;10.852;2023-03-23T04:51:11;52.38;;;22.83;;
41546;SDS011;27271;45.412;10.852;2023-03-23T04:54:38;62.20;;;24.10;;
41546;SDS011;27271;45.412;10.852;2023-03-23T04:58:04;59.08;;;23.40;;
41546;SDS011;27271;45.412;10.852;2023-03-23T05:01:32;56.70;;;23.65;;
41546;SDS011;27271;45.412;10.852;2023-03-23T05:05:08;59.92;;;23.10;;
41546;SDS011;27271;45.412;10.852;2023-03-23T05:08:32;57.20;;;22.33;;
41546;SDS011;27271;45.412;10.852;2023-03-23T05:11:54;58.35;;;24.55;;
41546;SDS011;27271;45.412;10.852;2023-03-23T05:15:26;64.43;;;23.55;;
41546;SDS011;27271;45.412;10.852;2023-03-23T05:18:49;57.33;;;22.80;;
41546;SDS011;27271;45.412;10.852;2023-03-23T05:22:13;56.90;;;22.92;;
41546;SDS011;27271;45.412;10.852;2023-03-23T05:25:52;51.50;;;22.85;;
41546;SDS011;27271;45.412;10.852;2023-03-23T05:29:14;65.45;;;24.67;;
41546;SDS011;27271;45.412;10.852;2023-03-23T05:33:02;58.03;;;24.50;;
41546;SDS011;27271;45.412;10.852;2023-03-23T05:36:46;55.58;;;23.58;;
41546;SDS011;27271;45.412;10.852;2023-03-23T05:40:20;63.85;;;24.48;;
41546;SDS011;27271;45.412;10.852;2023-03-23T05:43:50;64.20;;;25.17;;
41546;SDS011;27271;45.412;10.852;2023-03-23T05:47:35;60.83;;;24.48;;
41546;SDS011;27271;45.412;10.852;2023-03-23T05:51:02;58.30;;;25.02;;
41546;SDS011;27271;45.412;10.852;2023-03-23T05:54:26;65.65;;;25.40;;
41546;SDS011;27271;45.412;10.852;2023-03-23T05:57:48;67.13;;;25.77;;
41546;SDS011;27271;45.412;10.852;2023-03-23T06:01:17;61.33;;;26.02;;
41546;SDS011;27271;45.412;10.852;2023-03-23T06:04:39;59.42;;;25.75;;
41546;SDS011;27271;45.412;10.852;2023-03-23T06:08:13;62.78;;;25.38;;
41546;SDS011;27271;45.412;10.852;2023-03-23T06:11:35;65.55;;;27.80;;
41546;SDS011;27271;45.412;10.852;2023-03-23T06:15:19;66.60;;;26.50;;
41546;SDS011;27271;45.412;10.852;2023-03-23T06:18:52;64.80;;;27.45;;
41546;SDS011;27271;45.412;10.852;2023-03-23T06:22:20;61.08;;;25.60;;
41546;SDS011;27271;45.412;10.852;2023-03-23T06:25:42;64.22;;;25.40;;
41546;SDS011;27271;45.412;10.852;2023-03-23T06:29:05;67.20;;;27.60;;
41546;SDS011;27271;45.412;10.852;2023-03-23T06:32:40;63.72;;;27.15;;
41546;SDS011;27271;45.412;10.852;2023-03-23T06:36:23;59.15;;;25.23;;
41546;SDS011;27271;45.412;10.852;2023-03-23T06:40:05;58.90;;;26.05;;
41546;SDS011;27271;45.412;10.852;2023-03-23T06:43:41;59.45;;;25.33;;
41546;SDS011;27271;45.412;10.852;2023-03-23T06:47:11;60.17;;;26.42;;
41546;SDS011;27271;45.412;10.852;2023-03-23T06:50:42;72.10;;;29.25;;
41546;SDS011;27271;45.412;10.852;2023-03-23T06:54:05;57.63;;;27.33;;
41546;SDS011;27271;45.412;10.852;2023-03-23T06:57:32;62.03;;;27.80;;
41546;SDS011;27271;45.412;10.852;2023-03-23T07:01:03;59.63;;;25.20;;
41546;SDS011;27271;45.412;10.852;2023-03-23T07:04:31;51.97;;;22.95;;
41546;SDS011;27271;45.412;10.852;2023-03-23T07:08:02;54.85;;;23.38;;
41546;SDS011;27271;45.412;10.852;2023-03-23T07:11:28;51.13;;;24.52;;
41546;SDS011;27271;45.412;10.852;2023-03-23T07:14:54;55.33;;;25.02;;
41546;SDS011;27271;45.412;10.852;2023-03-23T07:18:16;51.42;;;24.48;;
41546;SDS011;27271;45.412;10.852;2023-03-23T07:21:40;56.25;;;24.17;;
41546;SDS011;27271;45.412;10.852;2023-03-23T07:25:04;49.28;;;24.73;;
41546;SDS011;27271;45.412;10.852;2023-03-23T07:28:42;51.78;;;24.48;;
41546;SDS011;27271;45.412;10.852;2023-03-23T07:32:35;52.28;;;21.33;;
41546;SDS011;27271;45.412;10.852;2023-03-23T07:36:00;48.90;;;21.65;;
41546;SDS011;27271;45.412;10.852;2023-03-23T07:39:24;53.22;;;23.42;;
41546;SDS011;27271;45.412;10.852;2023-03-23T07:42:53;48.50;;;23.33;;
41546;SDS011;27271;45.412;10.852;2023-03-23T07:46:38;45.95;;;23.15;;
41546;SDS011;27271;45.412;10.852;2023-03-23T07:50:07;48.03;;;21.63;;
41546;SDS011;27271;45.412;10.852;2023-03-23T07:53:33;41.67;;;22.85;;
41546;SDS011;27271;45.412;10.852;2023-03-23T07:57:17;44.30;;;23.80;;
41546;SDS011;27271;45.412;10.852;2023-03-23T08:00:45;57.13;;;26.90;;
41546;SDS011;27271;45.412;10.852;2023-03-23T08:04:08;48.00;;;23.38;;
41546;SDS011;27271;45.412;10.852;2023-03-23T08:07:50;44.30;;;22.95;;
41546;SDS011;27271;45.412;10.852;2023-03-23T08:11:41;43.53;;;24.05;;
41546;SDS011;27271;45.412;10.852;2023-03-23T08:15:21;38.40;;;21.23;;
41546;SDS011;27271;45.412;10.852;2023-03-23T08:19:03;37.60;;;22.50;;
41546;SDS011;27271;45.412;10.852;2023-03-23T08:22:48;40.28;;;22.23;;
41546;SDS011;27271;45.412;10.852;2023-03-23T08:26:42;37.28;;;21.00;;
41546;SDS011;27271;45.412;10.852;2023-03-23T08:30:19;40.40;;;21.98;;
41546;SDS011;27271;45.412;10.852;2023-03-23T08:34:11;37.00;;;20.98;;
41546;SDS011;27271;45.412;10.852;2023-03-23T08:37:52;43.08;;;22.27;;
41546;SDS011;27271;45.412;10.852;2023-03-23T08:41:34;38.47;;;20.40;;
41546;SDS011;27271;45.412;10.852;2023-03-23T08:45:15;43.88;;;22.98;;
41546;SDS011;27271;45.412;10.852;2023-03-23T08:49:09;40.58;;;22.40;;
41546;SDS011;27271;45.412;10.852;2023-03-23T08:52:59;43.33;;;21.75;;
41546;SDS011;27271;45.412;10.852;2023-03-23T08:56:29;43.38;;;23.55;;
41546;SDS011;27271;45.412;10.852;2023-03-23T09:00:18;42.90;;;21.52;;
41546;SDS011;27271;45.412;10.852;2023-03-23T09:03:59;39.55;;;21.48;;
41546;SDS011;27271;45.412;10.852;2023-03-23T09:07:20;39.00;;;22.10;;
41546;SDS011;27271;45.412;10.852;2023-03-23T09:10:41;39.95;;;22.23;;
41546;SDS011;27271;45.412;10.852;2023-03-23T09:14:12;49.00;;;23.77;;
41546;SDS011;27271;45.412;10.852;2023-03-23T09:17:33;39.22;;;23.02;;
41546;SDS011;27271;45.412;10.852;2023-03-23T09:20:56;44.78;;;23.30;;
41546;SDS011;27271;45.412;10.852;2023-03-23T09:24:21;45.15;;;25.08;;
41546;SDS011;27271;45.412;10.852;2023-03-23T09:27:43;40.53;;;23.95;;
41546;SDS011;27271;45.412;10.852;2023-03-23T09:31:05;40.20;;;22.67;;
41546;SDS011;27271;45.412;10.852;2023-03-23T09:34:31;37.38;;;21.92;;
41546;SDS011;27271;45.412;10.852;2023-03-23T09:37:57;41.55;;;22.92;;
41546;SDS011;27271;45.412;10.852;2023-03-23T09:48:59;39.83;;;21.58;;
41546;SDS011;27271;45.412;10.852;2023-03-23T09:52:52;37.50;;;20.95;;
41546;SDS011;27271;45.412;10.852;2023-03-23T09:56:19;34.60;;;21.15;;
41546;SDS011;27271;45.412;10.852;2023-03-23T09:59:45;38.03;;;20.85;;
41546;SDS011;27271;45.412;10.852;2023-03-23T10:03:21;34.13;;;20.58;;
41546;SDS011;27271;45.412;10.852;2023-03-23T10:06:58;39.33;;;21.80;;
41546;SDS011;27271;45.412;10.852;2023-03-23T10:10:41;39.00;;;22.83;;
41546;SDS011;27271;45.412;10.852;2023-03-23T10:18:37;39.03;;;21.65;;
41546;SDS011;27271;45.412;10.852;2023-03-23T10:22:15;40.17;;;22.67;;
41546;SDS011;27271;45.412;10.852;2023-03-23T10:26:08;38.42;;;21.27;;
41546;SDS011;27271;45.412;10.852;2023-03-23T10:29:40;40.03;;;23.55;;
41546;SDS011;27271;45.412;10.852;2023-03-23T10:33:11;36.95;;;21.90;;
41546;SDS011;27271;45.412;10.852;2023-03-23T10:36:36;42.67;;;22.38;;
41546;SDS011;27271;45.412;10.852;2023-03-23T10:40:01;40.17;;;22.20;;
41546;SDS011;27271;45.412;10.852;2023-03-23T10:43:45;41.25;;;23.10;;
41546;SDS011;27271;45.412;10.852;2023-03-23T10:47:10;40.38;;;23.48;;
41546;SDS011;27271;45.412;10.852;2023-03-23T10:50:44;44.15;;;22.17;;
41546;SDS011;27271;45.412;10.852;2023-03-23T10:54:10;37.33;;;22.10;;
41546;SDS011;27271;45.412;10.852;2023-03-23T10:58:00;42.15;;;21.33;;
41546;SDS011;27271;45.412;10.852;2023-03-23T11:01:32;41.33;;;23.92;;
41546;SDS011;27271;45.412;10.852;2023-03-23T11:05:03;48.40;;;27.15;;
41546;SDS011;27271;45.412;10.852;2023-03-23T11:12:43;40.85;;;23.58;;
41546;SDS011;27271;45.412;10.852;2023-03-23T11:16:24;41.28;;;23.00;;
41546;SDS011;27271;45.412;10.852;2023-03-23T11:19:54;44.53;;;24.75;;
41546;SDS011;27271;45.412;10.852;2023-03-23T11:23:18;39.28;;;23.42;;
41546;SDS011;27271;45.412;10.852;2023-03-23T11:26:45;42.08;;;23.40;;
41546;SDS011;27271;45.412;10.852;2023-03-23T11:30:24;42.63;;;23.95;;
41546;SDS011;27271;45.412;10.852;2023-03-23T11:37:25;44.70;;;25.00;;
41546;SDS011;27271;45.412;10.852;2023-03-23T11:41:08;45.40;;;24.20;;
41546;SDS011;27271;45.412;10.852;2023-03-23T11:44:33;38.58;;;22.55;;
41546;SDS011;27271;45.412;10.852;2023-03-23T11:51:50;39.95;;;24.02;;
41546;SDS011;27271;45.412;10.852;2023-03-23T11:55:25;42.10;;;24.08;;
41546;SDS011;27271;45.412;10.852;2023-03-23T11:59:14;40.38;;;23.35;;
41546;SDS011;27271;45.412;10.852;2023-03-23T12:03:02;45.13;;;25.08;;
41546;SDS011;27271;45.412;10.852;2023-03-23T12:10:49;43.88;;;23.65;;
41546;SDS011;27271;45.412;10.852;2023-03-23T12:14:20;49.33;;;25.33;;
41546;SDS011;27271;45.412;10.852;2023-03-23T12:22:10;50.80;;;26.15;;
41546;SDS011;27271;45.412;10.852;2023-03-23T12:25:50;45.08;;;25.67;;
41546;SDS011;27271;45.412;10.852;2023-03-23T12:36:43;48.03;;;26.90;;
41546;SDS011;27271;45.412;10.852;2023-03-23T12:44:07;46.97;;;26.83;;
41546;SDS011;27271;45.412;10.852;2023-03-23T12:48:05;54.00;;;27.67;;
41546;SDS011;27271;45.412;10.852;2023-03-23T12:51:39;51.65;;;27.77;;
41546;SDS011;27271;45.412;10.852;2023-03-23T12:58:45;48.38;;;26.98;;
41546;SDS011;27271;45.412;10.852;2023-03-23T13:05:44;55.63;;;28.58;;
41546;SDS011;27271;45.412;10.852;2023-03-23T13:09:42;51.97;;;28.70;;
41546;SDS011;27271;45.412;10.852;2023-03-23T13:13:13;51.40;;;28.92;;
41546;SDS011;27271;45.412;10.852;2023-03-23T13:17:01;54.95;;;28.83;;
41546;SDS011;27271;45.412;10.852;2023-03-23T13:20:58;54.65;;;28.85;;
41546;SDS011;27271;45.412;10.852;2023-03-23T13:24:21;50.95;;;28.30;;
41546;SDS011;27271;45.412;10.852;2023-03-23T13:28:01;49.53;;;27.45;;
41546;SDS011;27271;45.412;10.852;2023-03-23T13:31:34;58.72;;;29.88;;
41546;SDS011;27271;45.412;10.852;2023-03-23T13:34:57;54.13;;;27.65;;
41546;SDS011;27271;45.412;10.852;2023-03-23T13:38:24;54.95;;;28.35;;
41546;SDS011;27271;45.412;10.852;2023-03-23T13:49:05;44.75;;;22.05;;
41546;SDS011;27271;45.412;10.852;2023-03-23T13:59:47;25.30;;;13.88;;
41546;SDS011;27271;45.412;10.852;2023-03-23T14:06:35;25.52;;;14.70;;
41546;SDS011;27271;45.412;10.852;2023-03-23T14:10:04;24.35;;;13.95;;
41546;SDS011;27271;45.412;10.852;2023-03-23T14:13:38;25.65;;;13.43;;
41546;SDS011;27271;45.412;10.852;2023-03-23T14:20:39;17.38;;;10.38;;
41546;SDS011;27271;45.412;10.852;2023-03-23T14:24:06;18.33;;;10.48;;
41546;SDS011;27271;45.412;10.852;2023-03-23T14:27:31;18.55;;;10.02;;
41546;SDS011;27271;45.412;10.852;2023-03-23T14:30:52;19.10;;;10.13;;
41546;SDS011;27271;45.412;10.852;2023-03-23T14:34:19;20.95;;;10.13;;
41546;SDS011;27271;45.412;10.852;2023-03-23T14:37:41;20.73;;;10.27;;
41546;SDS011;27271;45.412;10.852;2023-03-23T14:41:03;18.25;;;10.10;;
41546;SDS011;27271;45.412;10.852;2023-03-23T14:44:27;19.33;;;10.20;;
41546;SDS011;27271;45.412;10.852;2023-03-23T14:47:57;17.02;;;9.15;;
41546;SDS011;27271;45.412;10.852;2023-03-23T14:51:20;18.77;;;8.38;;
41546;SDS011;27271;45.412;10.852;2023-03-23T14:54:43;16.25;;;9.32;;
41546;SDS011;27271;45.412;10.852;2023-03-23T14:58:08;16.27;;;9.50;;
41546;SDS011;27271;45.412;10.852;2023-03-23T15:01:33;19.10;;;8.40;;
41546;SDS011;27271;45.412;10.852;2023-03-23T15:04:57;18.67;;;8.02;;
41546;SDS011;27271;45.412;10.852;2023-03-23T15:08:24;17.15;;;8.32;;
41546;SDS011;27271;45.412;10.852;2023-03-23T15:11:53;16.70;;;8.10;;
41546;SDS011;27271;45.412;10.852;2023-03-23T15:18:53;18.33;;;7.47;;
41546;SDS011;27271;45.412;10.852;2023-03-23T15:22:22;18.13;;;8.32;;
41546;SDS011;27271;45.412;10.852;2023-03-23T15:26:05;20.60;;;7.10;;
41546;SDS011;27271;45.412;10.852;2023-03-23T15:29:46;15.85;;;6.22;;
41546;SDS011;27271;45.412;10.852;2023-03-23T15:33:13;13.10;;;6.25;;
41546;SDS011;27271;45.412;10.852;2023-03-23T15:36:42;16.13;;;7.10;;
41546;SDS011;27271;45.412;10.852;2023-03-23T15:40:04;13.95;;;6.35;;
41546;SDS011;27271;45.412;10.852;2023-03-23T15:47:01;13.48;;;6.57;;
41546;SDS011;27271;45.412;10.852;2023-03-23T15:53:47;16.75;;;8.75;;
41546;SDS011;27271;45.412;10.852;2023-03-23T15:57:10;14.13;;;7.45;;
41546;SDS011;27271;45.412;10.852;2023-03-23T16:00:34;16.73;;;8.18;;
41546;SDS011;27271;45.412;10.852;2023-03-23T16:04:09;17.88;;;6.60;;
41546;SDS011;27271;45.412;10.852;2023-03-23T16:07:35;13.38;;;6.53;;
41546;SDS011;27271;45.412;10.852;2023-03-23T16:10:58;15.30;;;7.00;;
41546;SDS011;27271;45.412;10.852;2023-03-23T16:14:20;18.75;;;8.20;;
41546;SDS011;27271;45.412;10.852;2023-03-23T16:17:43;16.95;;;6.70;;
41546;SDS011;27271;45.412;10.852;2023-03-23T16:21:07;18.10;;;6.55;;
41546;SDS011;27271;45.412;10.852;2023-03-23T16:24:33;16.40;;;6.63;;
41546;SDS011;27271;45.412;10.852;2023-03-23T16:27:55;16.90;;;6.55;;
41546;SDS011;27271;45.412;10.852;2023-03-23T16:31:18;21.92;;;7.40;;
41546;SDS011;27271;45.412;10.852;2023-03-23T16:34:41;15.75;;;6.53;;
41546;SDS011;27271;45.412;10.852;2023-03-23T16:38:04;18.05;;;7.50;;
41546;SDS011;27271;45.412;10.852;2023-03-23T16:41:29;13.80;;;5.78;;
41546;SDS011;27271;45.412;10.852;2023-03-23T16:44:52;12.82;;;5.93;;
41546;SDS011;27271;45.412;10.852;2023-03-23T16:48:17;16.10;;;6.47;;
41546;SDS011;27271;45.412;10.852;2023-03-23T16:51:40;16.88;;;7.03;;
41546;SDS011;27271;45.412;10.852;2023-03-23T16:55:03;15.10;;;6.55;;
41546;SDS011;27271;45.412;10.852;2023-03-23T16:58:27;16.42;;;7.32;;
41546;SDS011;27271;45.412;10.852;2023-03-23T17:01:49;18.08;;;7.40;;
41546;SDS011;27271;45.412;10.852;2023-03-23T17:05:12;15.90;;;6.88;;
41546;SDS011;27271;45.412;10.852;2023-03-23T17:08:35;21.42;;;7.55;;
41546;SDS011;27271;45.412;10.852;2023-03-23T17:11:57;18.15;;;7.63;;
41546;SDS011;27271;45.412;10.852;2023-03-23T17:15:19;18.38;;;8.70;;
41546;SDS011;27271;45.412;10.852;2023-03-23T17:18:41;17.95;;;7.47;;
41546;SDS011;27271;45.412;10.852;2023-03-23T17:22:03;15.93;;;7.18;;
41546;SDS011;27271;45.412;10.852;2023-03-23T17:25:26;17.88;;;7.35;;
41546;SDS011;27271;45.412;10.852;2023-03-23T17:28:51;25.00;;;10.05;;
41546;SDS011;27271;45.412;10.852;2023-03-23T17:32:14;18.05;;;8.02;;
41546;SDS011;27271;45.412;10.852;2023-03-23T17:35:37;18.17;;;7.03;;
41546;SDS011;27271;45.412;10.852;2023-03-23T17:38:59;11.38;;;5.78;;
41546;SDS011;27271;45.412;10.852;2023-03-23T17:42:21;17.73;;;6.57;;
41546;SDS011;27271;45.412;10.852;2023-03-23T17:45:43;17.27;;;6.90;;
41546;SDS011;27271;45.412;10.852;2023-03-23T17:49:07;17.52;;;6.60;;
41546;SDS011;27271;45.412;10.852;2023-03-23T17:52:33;16.80;;;6.95;;
41546;SDS011;27271;45.412;10.852;2023-03-23T17:55:56;18.27;;;7.32;;
41546;SDS011;27271;45.412;10.852;2023-03-23T17:59:19;20.30;;;7.68;;
41546;SDS011;27271;45.412;10.852;2023-03-23T18:02:43;19.52;;;7.10;;
41546;SDS011;27271;45.412;10.852;2023-03-23T18:06:07;20.88;;;7.97;;
41546;SDS011;27271;45.412;10.852;2023-03-23T18:09:33;18.40;;;7.15;;
41546;SDS011;27271;45.412;10.852;2023-03-23T18:12:56;19.83;;;8.20;;
41546;SDS011;27271;45.412;10.852;2023-03-23T18:16:19;19.50;;;7.60;;
41546;SDS011;27271;45.412;10.852;2023-03-23T18:19:42;19.38;;;7.80;;
41546;SDS011;27271;45.412;10.852;2023-03-23T18:23:07;20.70;;;8.18;;
41546;SDS011;27271;45.412;10.852;2023-03-23T18:26:30;21.00;;;7.85;;
41546;SDS011;27271;45.412;10.852;2023-03-23T18:29:52;20.33;;;8.02;;
41546;SDS011;27271;45.412;10.852;2023-03-23T18:33:19;18.02;;;8.77;;
41546;SDS011;27271;45.412;10.852;2023-03-23T18:36:42;22.13;;;7.82;;
41546;SDS011;27271;45.412;10.852;2023-03-23T18:40:05;19.85;;;8.48;;
41546;SDS011;27271;45.412;10.852;2023-03-23T18:43:31;21.63;;;7.72;;
41546;SDS011;27271;45.412;10.852;2023-03-23T18:46:54;17.63;;;8.18;;
41546;SDS011;27271;45.412;10.852;2023-03-23T18:50:17;18.80;;;7.85;;
41546;SDS011;27271;45.412;10.852;2023-03-23T18:53:39;21.20;;;8.32;;
41546;SDS011;27271;45.412;10.852;2023-03-23T18:57:03;21.10;;;8.70;;
41546;SDS011;27271;45.412;10.852;2023-03-23T19:00:26;24.25;;;8.63;;
41546;SDS011;27271;45.412;10.852;2023-03-23T19:03:48;24.33;;;10.25;;
41546;SDS011;27271;45.412;10.852;2023-03-23T19:07:12;23.35;;;9.10;;
41546;SDS011;27271;45.412;10.852;2023-03-23T19:10:35;21.60;;;8.85;;
41546;SDS011;27271;45.412;10.852;2023-03-23T19:14:00;20.13;;;7.95;;
41546;SDS011;27271;45.412;10.852;2023-03-23T19:17:24;20.30;;;9.00;;
41546;SDS011;27271;45.412;10.852;2023-03-23T19:20:47;23.92;;;9.18;;
41546;SDS011;27271;45.412;10.852;2023-03-23T19:24:14;26.05;;;8.68;;
41546;SDS011;27271;45.412;10.852;2023-03-23T19:27:36;30.92;;;10.50;;
41546;SDS011;27271;45.412;10.852;2023-03-23T19:31:19;23.17;;;10.13;;
41546;SDS011;27271;45.412;10.852;2023-03-23T19:34:45;34.63;;;12.02;;
41546;SDS011;27271;45.412;10.852;2023-03-23T19:38:11;103.30;;;41.83;;
41546;SDS011;27271;45.412;10.852;2023-03-23T19:41:34;35.95;;;14.10;;
41546;SDS011;27271;45.412;10.852;2023-03-23T19:44:57;29.08;;;12.77;;
41546;SDS011;27271;45.412;10.852;2023-03-23T19:48:21;30.75;;;11.80;;
41546;SDS011;27271;45.412;10.852;2023-03-23T19:51:43;28.88;;;12.50;;
41546;SDS011;27271;45.412;10.852;2023-03-23T19:55:06;37.33;;;14.75;;
41546;SDS011;27271;45.412;10.852;2023-03-23T19:58:28;41.38;;;17.98;;
41546;SDS011;27271;45.412;10.852;2023-03-23T20:01:52;34.72;;;16.23;;
41546;SDS011;27271;45.412;10.852;2023-03-23T20:05:15;34.90;;;14.93;;
41546;SDS011;27271;45.412;10.852;2023-03-23T20:08:40;32.60;;;15.38;;
41546;SDS011;27271;45.412;10.852;2023-03-23T20:12:06;35.45;;;15.35;;
41546;SDS011;27271;45.412;10.852;2023-03-23T20:15:30;28.35;;;13.43;;
41546;SDS011;27271;45.412;10.852;2023-03-23T20:18:53;32.15;;;11.88;;
41546;SDS011;27271;45.412;10.852;2023-03-23T20:22:21;29.25;;;10.68;;
41546;SDS011;27271;45.412;10.852;2023-03-23T20:25:43;26.23;;;9.90;;
41546;SDS011;27271;45.412;10.852;2023-03-23T20:29:06;25.65;;;10.32;;
41546;SDS011;27271;45.412;10.852;2023-03-23T20:32:30;21.13;;;9.35;;
41546;SDS011;27271;45.412;10.852;2023-03-23T20:35:53;23.63;;;9.88;;
41546;SDS011;27271;45.412;10.852;2023-03-23T20:39:16;26.58;;;9.77;;
41546;SDS011;27271;45.412;10.852;2023-03-23T20:42:43;30.70;;;10.30;;
41546;SDS011;27271;45.412;10.852;2023-03-23T20:46:10;25.73;;;10.57;;
41546;SDS011;27271;45.412;10.852;2023-03-23T20:49:34;21.48;;;9.63;;
41546;SDS011;27271;45.412;10.852;2023-03-23T20:52:58;28.45;;;16.13;;
41546;SDS011;27271;45.412;10.852;2023-03-23T20:56:23;26.02;;;10.75;;
41546;SDS011;27271;45.412;10.852;2023-03-23T20:59:48;29.15;;;11.57;;
41546;SDS011;27271;45.412;10.852;2023-03-23T21:03:14;19.85;;;9.80;;
41546;SDS011;27271;45.412;10.852;2023-03-23T21:10:25;24.25;;;9.88;;
41546;SDS011;27271;45.412;10.852;2023-03-23T21:13:48;27.67;;;10.65;;
41546;SDS011;27271;45.412;10.852;2023-03-23T21:17:13;22.00;;;10.90;;
41546;SDS011;27271;45.412;10.852;2023-03-23T21:20:37;25.25;;;9.07;;
41546;SDS011;27271;45.412;10.852;2023-03-23T21:24:00;23.50;;;10.30;;
41546;SDS011;27271;45.412;10.852;2023-03-23T21:27:23;25.45;;;10.70;;
41546;SDS011;27271;45.412;10.852;2023-03-23T21:30:46;26.63;;;10.32;;
41546;SDS011;27271;45.412;10.852;2023-03-23T21:34:10;26.25;;;11.60;;
41546;SDS011;27271;45.412;10.852;2023-03-23T21:37:34;29.55;;;10.98;;
41546;SDS011;27271;45.412;10.852;2023-03-23T21:40:58;26.38;;;10.32;;
41546;SDS011;27271;45.412;10.852;2023-03-23T21:44:27;28.53;;;11.67;;
41546;SDS011;27271;45.412;10.852;2023-03-23T21:47:50;26.83;;;12.38;;
41546;SDS011;27271;45.412;10.852;2023-03-23T21:51:19;23.67;;;11.32;;